LiveATC.Net - Listen to live air traffic control over the Internet! Contact LiveATC.net for advertising information

Find LiveATC Audio Streams


Airport/ARTCC Code

Frequency
(e.g., 124.400, 128.75)
Site-wide search

Browse LiveATC Feeds
LiveATC Coverage Map
Top 50 LiveATC Feeds
Bad Weather Areas

LiveATC FAQ
Offer a LiveATC Feed
Contact LiveATC.net
Press Inquiries

LiveATC on iPhone
LiveATC on Android

LiveATC Mobile
(Mobile browser)

ATC Audio Archives
Interesting Recordings

LiveATC Forums

Home Page
About LiveATC.net
Make a Donation
LiveATC Bookstore

Terms of Use
Privacy Policy

ATC/Radar Sites
U.S. ARTCC Freqs
Canadian Air Freqs

AIRMETs/SIGMETs

FAA Airport Status
Nat'l Airspace Status
Arrival Demand Charts


Server Software By:
Icecast.org
Liquidsoap


Current Potentially Bad Weather Airports
(updated every 30 minutes - sorted alphabetically by ICAO code)



This page lists LiveATC.net airport areas that may be interesting to listen to because of challenging flying (weather) conditions. Challenging weather conditions include low ceilings, limited visibility, high or gusty winds, or thunderstorms. This is an evolving new feature and comments are welcome.

Updated: Sat Oct 25 18:40:01 UTC 2014
Click on airport name to go to that airport area's feeds.

CYQT Gnd/Twr
cyqtCYQT 251800Z 29023G37KT 20SM FEW040 14/M01 A2967 RMK CU2 SLP049 DENSITY ALT 900FT
CYYT Gnd/Twr/Gander Center
WX MAP UNAVAILABLECYYT 251828Z 06011KT 1/2SM R11/4000FT/N -DZ FG VV002 09/09 A2935 RMK FG8 SLP943
ENVA Gnd/Twr/App
WX MAP UNAVAILABLEENVA 251820Z 17016KT CAVOK 12/03 Q0999 WS RWY 09 RMK WIND 670FT 18022G33KT
EPGD Tower/Approach
WX MAP UNAVAILABLEEPGD 251800Z 20007KT 9999 OVC009 02/M01 Q1023
EPRZ Del/Twr/EPWW Radar
WX MAP UNAVAILABLEEPRZ 251800Z 11011KT 9999 OVC007 01/M00 Q1027
KBUF Tower/App
kbufKBUF 251754Z 24027G40KT 10SM FEW027 SCT045 BKN080 16/10 A2964 RMK AO2 PK WND 25040/1753 SLP038 T01560100 10167 20117 56029
KBZN Ground/Tower/ZLC
kbznKBZN 251813Z 01003KT 3SM BR OVC002 05/04 A2993 RMK AO2 T00500044
KMEV CTAF/Unicom
kmevKMEV 251815Z AUTO 19025G34KT 10SM CLR 18/M04 A3000 RMK AO2
KPDT Tower
kpdtKPDT 251825Z 33011KT 1 1/4SM BR OVC002 09/08 A2958 RMK AO2 T00890083
KRNO Del/Gnd/Twr/App/ZOA
krnoKRNO 251755Z 18030G37KT 10SM FEW070 FEW100 FEW140 SCT200 19/M03 A2994 RMK AO2 PK WND 18042/1702 SLP094 ACSL DSNT N-E T01891028 10189 20150 53001
KRTS Reno Air Races
krtsKRTS 251815Z AUTO 20028G33KT 10SM SCT065 15/00 A2996 RMK AO2
KTRK CTAF/Unicom
ktrkKTRK 251755Z 20022G31KT 10SM BKN039 BKN046 11/01 A3003 RMK NOSPECI
KTVL CTAF/Unicom
ktvlKTVL 251753Z AUTO 19023G40KT 10SM CLR 13/M04 A3003 RMK AO2 PK WND 19042/1713 SLP117 T01331044 10133 20094 50000
LTAI Tower/Approach
WX MAP UNAVAILABLELTAI 251750Z 02006KT 350V050 9999 -TSRA FEW020CB BKN030 17/15 Q1013 NOSIG
PAFA Gnd/Twr/App
pafaPAFA 251753Z 00000KT 1SM R02L/6000VP6000FT -SN BR BKN004 OVC018 M04/M06 A2997 RMK AO2 SLP160 P0000 60000 I6001 T10391056 11039 21050 58004
RKSO/RKSG Gnd/Twr/App
WX MAP UNAVAILABLERKSO 251758Z AUTO 09004KT M1/4SM R27/0500FT FG VV001 10/10 A3011 RMK AO2 SLP199 T00990099 10140 20098 58001 $
RKSO/RKSG Gnd/Twr/App
WX MAP UNAVAILABLERKSG 251755Z 00000KT 0SM FG VV000 10/10 A3012 RMK AO2A SLP200 58002 $
SKRG Gnd/Twr/App #1
WX MAP UNAVAILABLESKRG 251830Z 35007KT 9999 4000E TSRA BKN015CB 18/14 A3025 RMK CB/N